Time;durP1;ratioP1;P1;durP2;ratioP2;P2;SDS_P1;SDS_P2;PMS_P1;PMS_P2;Temp;Humidity;BMP_temperature;BMP_pressure;BME280_temperature;BME280_humidity;BME280_pressure;Samples;Min_cycle;Max_cycle;Signal;HPM_P1;HPM_P2
2022/11/09 00:00:44;;;;;;;4.13;2.63;;;8.00;94.80;;;;;;4982715;28;20045;-81
2022/11/09 00:03:10;;;;;;;3.22;2.10;;;8.00;94.70;;;;;;4982502;28;20027;-81
2022/11/09 00:05:37;;;;;;;4.53;2.28;;;8.00;94.80;;;;;;4983485;28;20030;-82
2022/11/09 00:08:06;;;;;;;2.22;1.75;;;8.00;94.80;;;;;;4983902;28;20027;-83
2022/11/09 00:10:32;;;;;;;3.75;2.10;;;7.90;94.80;;;;;;4997936;28;20026;-83
2022/11/09 00:12:58;;;;;;;3.65;2.03;;;7.90;94.80;;;;;;4984254;28;20027;-82
2022/11/09 00:15:24;;;;;;;3.97;2.00;;;7.90;94.80;;;;;;4984827;28;20079;-82
2022/11/09 00:17:49;;;;;;;3.00;1.90;;;7.90;94.80;;;;;;4981912;28;20480;-83
2022/11/09 00:20:15;;;;;;;2.25;1.50;;;7.90;94.80;;;;;;4982248;28;20118;-81
2022/11/09 00:22:41;;;;;;;3.45;1.88;;;7.90;94.70;;;;;;4981786;28;20033;-83
2022/11/09 00:25:07;;;;;;;4.30;1.98;;;7.90;94.60;;;;;;4982056;28;20069;-82
2022/11/09 00:27:33;;;;;;;3.35;2.00;;;7.80;94.40;;;;;;4982242;28;20054;-83
2022/11/09 00:29:58;;;;;;;1.75;1.35;;;7.90;94.40;;;;;;4982201;28;20023;-83
2022/11/09 00:32:24;;;;;;;5.10;2.42;;;7.80;94.40;;;;;;4982186;28;20479;-83
2022/11/09 00:34:49;;;;;;;3.20;1.90;;;7.80;94.40;;;;;;4982666;28;20023;-83
2022/11/09 00:37:15;;;;;;;3.53;1.88;;;7.80;94.50;;;;;;4984024;28;20054;-82
2022/11/09 00:39:41;;;;;;;2.75;1.52;;;7.70;94.60;;;;;;4983568;28;20023;-83
2022/11/09 00:42:06;;;;;;;2.88;1.70;;;7.70;94.70;;;;;;4983134;28;20530;-83
2022/11/09 00:44:32;;;;;;;5.00;2.05;;;7.70;94.80;;;;;;4985239;28;20027;-83
2022/11/09 00:46:57;;;;;;;2.15;1.75;;;7.70;94.90;;;;;;4985511;28;20438;-82
2022/11/09 00:49:23;;;;;;;3.40;2.00;;;7.70;94.90;;;;;;4983173;28;20035;-83
2022/11/09 00:51:49;;;;;;;2.08;1.58;;;7.60;95.00;;;;;;4983197;28;20023;-82
2022/11/09 00:54:16;;;;;;;4.10;2.08;;;7.70;95.10;;;;;;4981533;28;20042;-82
2022/11/09 00:56:42;;;;;;;4.15;2.28;;;7.60;95.00;;;;;;4981278;28;20023;-83
2022/11/09 00:59:10;;;;;;;4.25;1.80;;;7.60;95.00;;;;;;4981755;28;20033;-83
2022/11/09 01:01:36;;;;;;;1.85;1.40;;;7.60;94.90;;;;;;4982408;28;20019;-83
2022/11/09 01:04:01;;;;;;;2.40;1.55;;;7.60;94.80;;;;;;4981683;28;20561;-81
2022/11/09 01:06:27;;;;;;;2.10;1.45;;;7.60;94.80;;;;;;4982255;28;20038;-82
2022/11/09 01:08:53;;;;;;;4.13;1.50;;;7.50;94.80;;;;;;4981938;28;20034;-82
2022/11/09 01:11:20;;;;;;;2.35;1.38;;;7.60;94.80;;;;;;4982402;28;20051;-82
2022/11/09 01:13:46;;;;;;;1.65;1.20;;;7.60;94.80;;;;;;4981758;28;20053;-83
2022/11/09 01:16:16;;;;;;;2.70;1.27;;;7.60;94.80;;;;;;4981453;28;20018;-83
2022/11/09 01:18:42;;;;;;;2.65;1.65;;;7.60;94.80;;;;;;4982425;28;20042;-83
2022/11/09 01:21:10;;;;;;;2.47;1.10;;;7.60;94.70;;;;;;4984106;28;20023;-83
2022/11/09 01:23:36;;;;;;;1.40;1.17;;;7.60;94.50;;;;;;4985412;28;20041;-83
2022/11/09 01:26:08;;;;;;;1.65;1.35;;;7.60;94.40;;;;;;4990303;28;20045;-83
2022/11/09 01:28:34;;;;;;;1.83;1.10;;;7.60;94.40;;;;;;4986185;28;20046;-83
2022/11/09 01:31:02;;;;;;;1.55;1.08;;;7.60;94.20;;;;;;5001629;28;20037;-83
2022/11/09 01:33:28;;;;;;;3.80;1.58;;;7.50;94.00;;;;;;4985475;28;20023;-83
2022/11/09 01:35:53;;;;;;;1.67;1.05;;;7.50;94.10;;;;;;4991192;28;20019;-83
2022/11/09 01:38:19;;;;;;;2.38;1.70;;;7.50;94.00;;;;;;4986527;28;20432;-83
2022/11/09 01:40:44;;;;;;;1.92;1.27;;;7.50;94.00;;;;;;4987262;28;20030;-83
2022/11/09 01:43:19;;;;;;;1.85;1.20;;;7.40;93.90;;;;;;4985105;28;20034;-83
2022/11/09 01:45:50;;;;;;;2.63;1.40;;;7.40;94.00;;;;;;4987762;28;20018;-83
2022/11/09 01:48:23;;;;;;;1.67;1.25;;;7.40;94.00;;;;;;4989171;28;20379;-83
2022/11/09 01:50:54;;;;;;;2.00;1.20;;;7.30;94.00;;;;;;4986208;28;20038;-83
2022/11/09 01:53:24;;;;;;;2.35;1.20;;;7.30;94.10;;;;;;4984548;28;20062;-84
2022/11/09 01:55:53;;;;;;;1.63;1.27;;;7.30;94.10;;;;;;4985189;28;20511;-82
2022/11/09 01:58:30;;;;;;;3.00;1.25;;;7.30;94.10;;;;;;4985768;28;20035;-83
2022/11/09 02:00:58;;;;;;;1.50;0.95;;;7.20;94.10;;;;;;4986183;28;20042;-81
2022/11/09 02:03:34;;;;;;;1.77;1.35;;;7.20;94.10;;;;;;4987821;28;20130;-83
2022/11/09 02:06:03;;;;;;;0.98;0.88;;;7.20;94.20;;;;;;4983694;28;20101;-83
2022/11/09 02:08:29;;;;;;;3.67;1.42;;;7.20;94.20;;;;;;4980958;28;20062;-82
2022/11/09 02:11:07;;;;;;;1.98;1.10;;;7.20;94.20;;;;;;4983740;28;20034;-82
2022/11/09 02:13:34;;;;;;;2.22;1.30;;;7.10;94.20;;;;;;4984746;28;20035;-82
2022/11/09 02:16:00;;;;;;;1.77;1.45;;;7.10;94.20;;;;;;4985750;28;20446;-82
2022/11/09 02:18:27;;;;;;;1.50;1.17;;;7.10;94.20;;;;;;4984911;28;20098;-82
2022/11/09 02:20:56;;;;;;;1.42;1.00;;;7.10;94.30;;;;;;4999571;28;20023;-82
2022/11/09 02:23:24;;;;;;;1.77;1.02;;;7.10;94.30;;;;;;4985809;28;20027;-82
2022/11/09 02:26:12;;;;;;;1.15;1.05;;;7.10;94.30;;;;;;4985390;28;20073;-83
2022/11/09 02:28:38;;;;;;;3.95;1.00;;;7.10;94.30;;;;;;4995391;28;20029;-83
2022/11/09 02:31:09;;;;;;;1.10;0.82;;;7.10;94.20;;;;;;4996103;28;20095;-83
2022/11/09 02:33:53;;;;;;;0.98;0.68;;;7.10;94.10;;;;;;4997742;28;20048;-83
2022/11/09 02:36:19;;;;;;;1.50;0.80;;;7.10;94.10;;;;;;4995828;28;20039;-83
2022/11/09 02:38:44;;;;;;;1.60;1.13;;;7.10;94.00;;;;;;4983248;28;20618;-82
2022/11/09 02:41:12;;;;;;;1.67;1.10;;;7.10;93.90;;;;;;4987711;28;20030;-82
2022/11/09 02:43:38;;;;;;;2.15;1.13;;;7.10;93.90;;;;;;4984816;28;20023;-82
2022/11/09 02:46:04;;;;;;;1.77;0.63;;;7.10;93.90;;;;;;4984356;28;20081;-83
2022/11/09 02:48:29;;;;;;;1.30;0.90;;;7.10;93.90;;;;;;4984459;28;20042;-82
2022/11/09 02:50:55;;;;;;;1.65;1.13;;;7.10;93.80;;;;;;4983840;28;20085;-82
2022/11/09 02:53:20;;;;;;;1.50;1.02;;;7.10;93.80;;;;;;4983361;28;20528;-82
2022/11/09 02:55:46;;;;;;;2.00;1.27;;;7.10;93.70;;;;;;4983845;28;20027;-82
2022/11/09 02:58:12;;;;;;;1.13;0.93;;;7.10;93.70;;;;;;4983529;28;20026;-83
2022/11/09 03:00:37;;;;;;;0.75;0.70;;;7.10;93.60;;;;;;4983946;28;20038;-82
2022/11/09 03:03:03;;;;;;;1.17;1.05;;;7.10;93.60;;;;;;4983266;28;20046;-83
2022/11/09 03:05:29;;;;;;;2.65;1.25;;;7.10;93.60;;;;;;4982651;28;20062;-82
2022/11/09 03:07:55;;;;;;;1.15;1.05;;;7.10;93.60;;;;;;4982472;28;20049;-83
2022/11/09 03:10:21;;;;;;;1.80;1.23;;;7.10;93.60;;;;;;4984007;28;20045;-83
2022/11/09 03:12:47;;;;;;;1.08;0.80;;;7.10;93.60;;;;;;4984217;28;20030;-83
2022/11/09 03:15:13;;;;;;;2.20;1.42;;;7.20;93.60;;;;;;4983192;28;20023;-83
2022/11/09 03:17:39;;;;;;;2.40;0.93;;;7.20;93.40;;;;;;4984804;28;20069;-83
2022/11/09 03:20:05;;;;;;;1.38;1.08;;;7.20;93.30;;;;;;4986332;28;20038;-83
2022/11/09 03:22:31;;;;;;;1.23;0.90;;;7.20;93.30;;;;;;4987846;28;20042;-82
2022/11/09 03:24:56;;;;;;;0.73;0.73;;;7.20;93.30;;;;;;4990018;28;20054;-82
2022/11/09 03:27:22;;;;;;;1.27;1.00;;;7.20;93.30;;;;;;4991249;28;20027;-82
2022/11/09 03:29:48;;;;;;;1.98;0.98;;;7.20;93.40;;;;;;4990055;28;20031;-81
2022/11/09 03:32:13;;;;;;;0.77;0.77;;;7.10;93.50;;;;;;4989063;28;20021;-82
2022/11/09 03:34:39;;;;;;;1.33;0.95;;;7.20;93.50;;;;;;4989216;28;20058;-81
2022/11/09 03:37:04;;;;;;;1.65;0.88;;;7.10;93.40;;;;;;4986709;28;20555;-82
2022/11/09 03:39:30;;;;;;;1.30;0.90;;;7.10;93.50;;;;;;4987691;28;20054;-81
2022/11/09 03:41:56;;;;;;;2.50;1.33;;;7.10;93.40;;;;;;5001586;28;20464;-82
2022/11/09 03:44:21;;;;;;;0.93;0.77;;;7.10;93.30;;;;;;4985785;28;20039;-82
2022/11/09 03:46:47;;;;;;;1.40;0.77;;;7.20;93.30;;;;;;4982759;28;20027;-82
2022/11/09 03:49:13;;;;;;;1.88;1.35;;;7.20;93.30;;;;;;4985130;28;20015;-82
2022/11/09 03:51:38;;;;;;;2.05;0.82;;;7.20;93.20;;;;;;4985212;28;20054;-82
2022/11/09 03:54:04;;;;;;;1.92;0.90;;;7.20;93.20;;;;;;4983987;28;20041;-82
2022/11/09 03:56:30;;;;;;;1.10;1.00;;;7.20;93.20;;;;;;4984528;28;20027;-83
2022/11/09 03:58:55;;;;;;;1.27;0.93;;;7.20;93.20;;;;;;4984202;28;20081;-81
2022/11/09 04:01:21;;;;;;;1.08;0.88;;;7.20;93.10;;;;;;4982358;28;20038;-82
2022/11/09 04:03:46;;;;;;;1.05;0.75;;;7.20;93.00;;;;;;4982128;28;20026;-81
2022/11/09 04:06:12;;;;;;;0.60;0.60;;;7.20;92.90;;;;;;4981793;28;20027;-82
2022/11/09 04:08:38;;;;;;;1.48;0.60;;;7.20;92.90;;;;;;4979202;28;20075;-82
2022/11/09 04:11:04;;;;;;;1.23;0.80;;;7.30;92.80;;;;;;4985529;28;20493;-81
2022/11/09 04:13:29;;;;;;;2.42;0.73;;;7.30;92.70;;;;;;4985173;28;20514;-82
2022/11/09 04:15:55;;;;;;;0.70;0.70;;;7.30;92.70;;;;;;4984586;28;20050;-82
2022/11/09 04:18:20;;;;;;;2.30;0.90;;;7.30;92.60;;;;;;4982871;28;20043;-82
2022/11/09 04:20:46;;;;;;;3.00;0.98;;;7.40;92.60;;;;;;4983464;28;20107;-82
2022/11/09 04:23:13;;;;;;;0.52;0.50;;;7.40;92.50;;;;;;4984821;28;20026;-82
2022/11/09 04:25:41;;;;;;;1.02;0.95;;;7.40;92.40;;;;;;4984965;28;20027;-82
2022/11/09 04:28:08;;;;;;;1.23;0.63;;;7.40;92.30;;;;;;4985027;28;20027;-82
2022/11/09 04:30:35;;;;;;;1.00;0.80;;;7.40;92.50;;;;;;4984838;28;20023;-82
2022/11/09 04:33:02;;;;;;;1.63;0.82;;;7.50;92.20;;;;;;4989114;28;20083;-81
2022/11/09 04:35:29;;;;;;;2.05;1.15;;;7.40;92.10;;;;;;4981073;28;20030;-78
2022/11/09 04:38:00;;;;;;;1.15;0.70;;;7.50;92.00;;;;;;4988841;28;20027;-81
2022/11/09 04:40:28;;;;;;;0.93;0.90;;;7.50;91.90;;;;;;4999211;28;20030;-81
2022/11/09 04:42:54;;;;;;;1.25;1.00;;;7.50;91.80;;;;;;4991114;28;20031;-79
2022/11/09 04:45:20;;;;;;;1.55;0.68;;;7.60;91.70;;;;;;4987251;28;20026;-80
2022/11/09 04:47:46;;;;;;;1.25;0.70;;;7.50;91.50;;;;;;4988109;28;20050;-81
2022/11/09 04:50:12;;;;;;;1.27;0.85;;;7.60;91.50;;;;;;4988894;28;20015;-79
2022/11/09 04:52:38;;;;;;;1.15;0.77;;;7.60;91.40;;;;;;4986743;28;20027;-79
2022/11/09 04:55:05;;;;;;;1.35;0.35;;;7.60;91.40;;;;;;4987036;28;20451;-81
2022/11/09 04:57:30;;;;;;;1.00;0.90;;;7.60;91.50;;;;;;5000602;28;20085;-83
2022/11/09 04:59:56;;;;;;;0.63;0.60;;;7.60;91.40;;;;;;4983594;28;20047;-81
2022/11/09 05:02:21;;;;;;;1.45;0.90;;;7.60;91.50;;;;;;4983379;28;20465;-82
2022/11/09 05:04:47;;;;;;;0.80;0.70;;;7.60;91.50;;;;;;4986399;28;20034;-82
2022/11/09 05:07:13;;;;;;;1.00;0.70;;;7.60;91.50;;;;;;4982935;28;20063;-81
2022/11/09 05:09:38;;;;;;;1.52;1.00;;;7.60;91.50;;;;;;4982278;28;20391;-82
2022/11/09 05:12:04;;;;;;;1.05;0.70;;;7.60;91.50;;;;;;5007300;28;20030;-84
2022/11/09 05:14:30;;;;;;;1.15;0.70;;;7.60;91.50;;;;;;4986901;28;20029;-83
2022/11/09 05:16:55;;;;;;;0.68;0.68;;;7.50;91.50;;;;;;4984904;28;20023;-82
2022/11/09 05:19:21;;;;;;;1.55;0.90;;;7.50;91.60;;;;;;4984417;28;20034;-82
2022/11/09 05:21:47;;;;;;;0.70;0.65;;;7.50;91.60;;;;;;4983250;28;20436;-83
2022/11/09 05:24:12;;;;;;;0.65;0.50;;;7.60;91.60;;;;;;4982942;28;20062;-83
2022/11/09 05:26:40;;;;;;;0.68;0.55;;;7.60;91.50;;;;;;4966457;28;20448;-83
2022/11/09 05:29:08;;;;;;;0.77;0.73;;;7.50;91.40;;;;;;4963847;28;20099;-83
2022/11/09 05:31:34;;;;;;;0.50;0.50;;;7.50;91.40;;;;;;4963534;28;20026;-84
2022/11/09 05:34:00;;;;;;;0.50;0.50;;;7.50;91.40;;;;;;4966593;28;20038;-82
2022/11/09 05:36:28;;;;;;;1.55;0.65;;;7.50;91.50;;;;;;4981023;28;20026;-81
2022/11/09 05:38:54;;;;;;;0.98;0.70;;;7.50;91.50;;;;;;4982677;28;20488;-83
2022/11/09 05:41:20;;;;;;;0.95;0.70;;;7.50;91.70;;;;;;4981886;28;20338;-82
2022/11/09 05:43:46;;;;;;;0.73;0.55;;;7.50;91.70;;;;;;4982023;28;20441;-83
2022/11/09 05:46:13;;;;;;;0.55;0.50;;;7.50;91.70;;;;;;4981446;28;20245;-82
2022/11/09 05:48:39;;;;;;;1.00;0.70;;;7.50;91.70;;;;;;4982418;28;20031;-83
2022/11/09 05:51:06;;;;;;;0.60;0.60;;;7.50;91.70;;;;;;4982306;28;20105;-83
2022/11/09 05:53:32;;;;;;;0.88;0.63;;;7.50;91.70;;;;;;4982886;28;20031;-84
2022/11/09 05:56:11;;;;;;;0.60;0.57;;;7.50;91.60;;;;;;4988673;28;20145;-83
2022/11/09 05:58:37;;;;;;;1.27;0.80;;;7.50;91.60;;;;;;4991768;28;20023;-84
2022/11/09 06:01:09;;;;;;;1.10;0.77;;;7.50;91.60;;;;;;5004717;28;20080;-83
2022/11/09 06:03:34;;;;;;;0.52;0.47;;;7.50;91.70;;;;;;4988949;28;20026;-82
2022/11/09 06:06:02;;;;;;;1.00;0.68;;;7.60;91.70;;;;;;5002299;28;20031;-83
2022/11/09 06:08:28;;;;;;;0.80;0.60;;;7.60;91.60;;;;;;4981150;28;20030;-80
2022/11/09 06:11:04;;;;;;;2.67;0.90;;;7.70;91.60;;;;;;4984902;28;20062;-82
2022/11/09 06:13:30;;;;;;;1.48;0.90;;;7.80;91.50;;;;;;4983214;28;20031;-83
2022/11/09 06:16:01;;;;;;;2.50;1.00;;;7.90;91.40;;;;;;4986464;28;20042;-82
2022/11/09 06:18:28;;;;;;;1.92;1.00;;;8.00;91.30;;;;;;4988149;28;20082;-83
2022/11/09 06:20:57;;;;;;;2.10;0.95;;;8.00;91.10;;;;;;4986674;28;20027;-82
2022/11/09 06:23:24;;;;;;;1.33;0.90;;;8.10;91.00;;;;;;5003083;28;20114;-82
2022/11/09 06:26:00;;;;;;;0.63;0.40;;;8.20;90.80;;;;;;4985077;28;20066;-81
2022/11/09 06:28:26;;;;;;;1.55;0.70;;;8.20;90.50;;;;;;4983026;28;20468;-84
2022/11/09 06:30:55;;;;;;;0.82;0.70;;;8.20;90.30;;;;;;4982550;28;20034;-82
2022/11/09 06:33:21;;;;;;;1.00;0.80;;;8.30;90.30;;;;;;4998999;28;20045;-84
2022/11/09 06:35:47;;;;;;;2.28;1.42;;;8.30;90.20;;;;;;4985559;28;20090;-81
2022/11/09 06:38:12;;;;;;;1.00;0.90;;;8.30;89.80;;;;;;4986180;28;20034;-81
2022/11/09 06:40:38;;;;;;;1.85;1.35;;;8.30;89.60;;;;;;4985749;28;20033;-82
2022/11/09 06:43:04;;;;;;;2.25;1.30;;;8.40;89.60;;;;;;4987332;28;20042;-81
2022/11/09 06:45:30;;;;;;;1.50;1.00;;;8.50;89.70;;;;;;5003964;28;20027;-80
2022/11/09 06:48:02;;;;;;;5.40;1.65;;;8.60;89.70;;;;;;4988708;28;20034;-82
2022/11/09 06:50:31;;;;;;;8.02;1.73;;;8.80;88.50;;;;;;4986264;28;20038;-83
2022/11/09 06:52:58;;;;;;;4.03;1.35;;;9.00;86.60;;;;;;4986877;28;20034;-83
2022/11/09 06:55:25;;;;;;;5.53;1.05;;;9.30;84.30;;;;;;4989318;28;20050;-83
2022/11/09 06:57:51;;;;;;;6.05;1.40;;;9.50;83.20;;;;;;5008755;28;20046;-83
2022/11/09 07:00:18;;;;;;;4.13;1.40;;;9.70;82.30;;;;;;5002667;28;20019;-83
2022/11/09 07:02:43;;;;;;;4.60;1.58;;;9.70;82.40;;;;;;4991062;28;20122;-84
2022/11/09 07:05:09;;;;;;;6.65;1.73;;;9.80;82.40;;;;;;4997229;28;20023;-86
2022/11/09 07:07:35;;;;;;;2.42;1.20;;;9.80;82.20;;;;;;4998991;28;20067;-83
2022/11/09 07:10:00;;;;;;;5.85;1.35;;;9.70;82.40;;;;;;5014086;28;20030;-85
2022/11/09 07:12:26;;;;;;;2.38;1.17;;;9.70;82.40;;;;;;5010111;28;20054;-86
2022/11/09 07:14:52;;;;;;;2.60;1.65;;;9.70;82.80;;;;;;5007152;28;20066;-85
2022/11/09 07:17:17;;;;;;;2.97;1.13;;;9.70;82.50;;;;;;5005187;28;20031;-83
2022/11/09 07:19:43;;;;;;;1.63;1.02;;;9.70;82.30;;;;;;4986162;28;20046;-81
2022/11/09 07:22:09;;;;;;;4.60;1.40;;;9.70;82.20;;;;;;4989527;28;20441;-83
2022/11/09 07:24:34;;;;;;;2.67;1.27;;;9.60;82.00;;;;;;4987655;28;20033;-81
2022/11/09 07:27:00;;;;;;;1.38;1.15;;;9.60;82.00;;;;;;4988246;28;20026;-82
2022/11/09 07:29:26;;;;;;;1.58;1.15;;;9.60;81.80;;;;;;4985783;28;20388;-83
2022/11/09 07:31:51;;;;;;;3.47;1.90;;;9.70;81.70;;;;;;4987593;28;20027;-83
2022/11/09 07:34:17;;;;;;;1.98;1.30;;;9.70;81.20;;;;;;4990064;28;20074;-83
2022/11/09 07:36:43;;;;;;;1.80;1.23;;;9.70;81.20;;;;;;4989978;28;20035;-82
2022/11/09 07:39:08;;;;;;;2.05;1.30;;;9.70;81.20;;;;;;4990928;28;20053;-82
2022/11/09 07:41:34;;;;;;;4.25;2.03;;;9.70;81.40;;;;;;4992343;28;20042;-82
2022/11/09 07:43:59;;;;;;;0.95;0.90;;;9.70;81.50;;;;;;4991860;28;20057;-83
2022/11/09 07:46:25;;;;;;;2.13;0.77;;;9.70;81.70;;;;;;4997144;28;20049;-82
2022/11/09 07:48:51;;;;;;;2.67;1.40;;;9.70;81.80;;;;;;4998262;28;20038;-83
2022/11/09 07:51:16;;;;;;;1.30;1.00;;;9.80;82.00;;;;;;5013630;28;20025;-82
2022/11/09 07:53:42;;;;;;;2.95;1.50;;;9.80;81.90;;;;;;4997917;28;20041;-83
2022/11/09 07:56:08;;;;;;;0.90;0.70;;;9.90;81.80;;;;;;4993090;28;20026;-82
2022/11/09 07:58:34;;;;;;;1.40;1.00;;;9.90;81.70;;;;;;4992008;28;20023;-82
2022/11/09 08:01:00;;;;;;;4.43;1.30;;;10.00;81.70;;;;;;4989803;28;20023;-82
2022/11/09 08:03:26;;;;;;;1.73;1.13;;;10.00;81.40;;;;;;4990942;28;20124;-81
2022/11/09 08:05:52;;;;;;;1.08;0.88;;;10.10;81.20;;;;;;4987696;28;20066;-81
2022/11/09 08:08:18;;;;;;;1.45;1.05;;;10.20;81.10;;;;;;4993691;28;20034;-83
2022/11/09 08:10:50;;;;;;;1.80;1.00;;;10.30;80.90;;;;;;4993295;28;20030;-82
2022/11/09 08:13:15;;;;;;;2.10;1.58;;;10.40;80.80;;;;;;4983937;28;20050;-82
2022/11/09 08:15:41;;;;;;;2.08;1.20;;;10.60;80.60;;;;;;4985876;28;20023;-82
2022/11/09 08:18:11;;;;;;;4.90;1.50;;;10.70;80.20;;;;;;5002474;28;20094;-83
2022/11/09 08:20:36;;;;;;;2.08;1.60;;;10.90;79.90;;;;;;4987585;28;20023;-83
2022/11/09 08:23:02;;;;;;;2.90;1.55;;;11.10;79.40;;;;;;4986133;28;20033;-83
2022/11/09 08:25:28;;;;;;;2.42;1.48;;;11.30;79.00;;;;;;4985348;28;20114;-82
2022/11/09 08:27:56;;;;;;;3.97;1.42;;;11.50;78.30;;;;;;4984852;28;20027;-84
2022/11/09 08:30:22;;;;;;;3.25;1.38;;;11.70;77.80;;;;;;4986209;28;20034;-82
2022/11/09 08:32:48;;;;;;;3.47;1.13;;;11.80;77.60;;;;;;4986249;28;20026;-82
2022/11/09 08:35:17;;;;;;;2.63;1.40;;;12.00;76.00;;;;;;4984964;28;20027;-83
2022/11/09 08:37:47;;;;;;;3.70;1.40;;;12.20;75.30;;;;;;4987391;28;20043;-83
2022/11/09 08:40:16;;;;;;;2.15;1.27;;;12.50;74.40;;;;;;5001120;28;20023;-82
2022/11/09 08:42:42;;;;;;;3.90;1.50;;;12.70;73.20;;;;;;4985973;28;20030;-81
2022/11/09 08:45:08;;;;;;;2.65;1.65;;;12.80;72.30;;;;;;4984363;28;20023;-82
2022/11/09 08:47:34;;;;;;;3.80;1.60;;;13.00;71.10;;;;;;4985644;28;20101;-80
2022/11/09 08:50:03;;;;;;;4.10;1.50;;;13.10;70.60;;;;;;4985428;28;20019;-82
2022/11/09 08:52:29;;;;;;;4.97;1.15;;;13.20;70.40;;;;;;4986149;28;20309;-81
2022/11/09 08:54:54;;;;;;;3.13;1.50;;;13.20;70.10;;;;;;5000999;28;20089;-79
2022/11/09 08:57:20;;;;;;;2.35;1.60;;;13.20;69.70;;;;;;4986220;28;20039;-81
2022/11/09 08:59:46;;;;;;;3.67;1.80;;;13.30;69.20;;;;;;5000184;28;20031;-80
2022/11/09 09:02:12;;;;;;;2.88;1.58;;;13.20;69.30;;;;;;5001504;28;20117;-80
2022/11/09 09:04:39;;;;;;;2.63;1.30;;;13.20;68.80;;;;;;4986444;28;20225;-81
2022/11/09 09:07:05;;;;;;;2.03;1.23;;;13.10;68.70;;;;;;4984468;28;20031;-80
2022/11/09 09:09:31;;;;;;;2.50;1.42;;;13.10;68.70;;;;;;4998574;28;20034;-80
2022/11/09 09:11:56;;;;;;;4.18;1.30;;;13.20;68.90;;;;;;4983838;28;20031;-79
2022/11/09 09:14:23;;;;;;;1.20;1.10;;;13.10;68.80;;;;;;4982460;28;20107;-81
2022/11/09 09:16:48;;;;;;;1.23;1.10;;;13.20;68.70;;;;;;5000723;28;20087;-81
2022/11/09 09:19:14;;;;;;;1.60;1.27;;;13.20;68.50;;;;;;4985998;28;20022;-83
2022/11/09 09:21:40;;;;;;;5.65;1.50;;;13.30;68.40;;;;;;4999823;28;20090;-80
2022/11/09 09:24:06;;;;;;;2.67;1.70;;;13.40;68.10;;;;;;4984384;28;20027;-79
2022/11/09 09:26:31;;;;;;;2.85;1.33;;;13.40;67.90;;;;;;5000429;28;20086;-81
2022/11/09 09:28:57;;;;;;;1.60;1.35;;;13.60;67.80;;;;;;5000008;28;20039;-81
2022/11/09 09:31:23;;;;;;;3.03;1.38;;;13.70;67.70;;;;;;4984845;28;20059;-81
2022/11/09 09:33:49;;;;;;;3.53;1.73;;;13.80;68.10;;;;;;4986278;28;20031;-80
2022/11/09 09:36:18;;;;;;;3.78;1.75;;;14.00;67.50;;;;;;4984206;28;20033;-81
2022/11/09 09:38:43;;;;;;;3.33;1.83;;;14.00;67.20;;;;;;4985845;28;20312;-81
2022/11/09 09:41:22;;;;;;;2.72;1.67;;;14.20;67.10;;;;;;4987185;28;20058;-80
2022/11/09 09:43:51;;;;;;;4.38;1.73;;;14.40;66.90;;;;;;4990443;28;20023;-79
2022/11/09 09:46:21;;;;;;;2.45;1.52;;;14.60;66.30;;;;;;4991491;28;20399;-82
2022/11/09 09:49:12;;;;;;;3.67;1.40;;;14.60;66.00;;;;;;4989605;28;20023;-81
2022/11/09 09:51:47;;;;;;;2.30;1.05;;;14.70;66.10;;;;;;4988947;28;20077;-81
2022/11/09 09:54:43;;;;;;;2.28;1.23;;;14.70;65.90;;;;;;4987932;28;20058;-80
2022/11/09 09:57:19;;;;;;;3.65;1.38;;;14.70;65.90;;;;;;4989583;28;20031;-80
2022/11/09 09:59:50;;;;;;;1.63;1.20;;;14.70;66.00;;;;;;4993143;28;20037;-81
2022/11/09 10:02:24;;;;;;;2.90;1.30;;;14.80;66.00;;;;;;4992168;28;20023;-81
2022/11/09 10:04:50;;;;;;;3.28;1.20;;;14.90;66.10;;;;;;4991251;28;20143;-81
2022/11/09 10:07:26;;;;;;;1.65;1.20;;;14.90;66.20;;;;;;4994659;28;20033;-79
2022/11/09 10:10:19;;;;;;;1.05;0.98;;;15.10;66.50;;;;;;4999963;28;20090;-79
2022/11/09 10:13:05;;;;;;;1.75;1.30;;;15.30;66.20;;;;;;4999504;28;20033;-78
2022/11/09 10:15:31;;;;;;;4.60;1.42;;;15.60;65.90;;;;;;4999955;28;20030;-79
2022/11/09 10:18:06;;;;;;;3.40;1.27;;;15.90;65.50;;;;;;5014565;28;20090;-79
2022/11/09 10:20:40;;;;;;;2.53;1.00;;;16.10;64.40;;;;;;4999583;28;20052;-79
2022/11/09 10:23:21;;;;;;;1.38;0.85;;;16.10;64.00;;;;;;5014805;28;20158;-79
2022/11/09 10:25:53;;;;;;;1.05;1.00;;;16.00;64.20;;;;;;4998405;28;20082;-80
2022/11/09 10:28:25;;;;;;;1.65;1.00;;;15.90;64.40;;;;;;5014198;28;20062;-79
2022/11/09 10:30:51;;;;;;;3.33;0.82;;;15.90;64.50;;;;;;4999496;28;20037;-79
2022/11/09 10:33:21;;;;;;;1.67;0.80;;;15.80;64.40;;;;;;4999060;28;20087;-80
2022/11/09 10:36:22;;;;;;;1.23;0.68;;;15.80;64.70;;;;;;4995827;28;20034;-79
2022/11/09 10:38:50;;;;;;;2.03;0.80;;;15.80;64.80;;;;;;4975886;28;20042;-78
2022/11/09 10:41:38;;;;;;;6.60;1.50;;;15.80;64.80;;;;;;5035131;22;20041;-82
2022/11/09 10:44:04;;;;;;;1.40;0.90;;;15.80;64.70;;;;;;5000505;28;20121;-82
2022/11/09 10:46:29;;;;;;;0.93;0.60;;;15.80;64.80;;;;;;4983553;28;20069;-81
2022/11/09 10:48:55;;;;;;;1.73;0.90;;;15.80;65.00;;;;;;5001011;28;20125;-82
2022/11/09 10:51:37;;;;;;;2.38;0.82;;;16.00;65.00;;;;;;4985576;28;20026;-84
2022/11/09 10:54:25;;;;;;;1.27;1.13;;;16.40;64.00;;;;;;4995425;28;20022;-84
2022/11/09 10:57:00;;;;;;;1.08;0.90;;;16.60;63.10;;;;;;4982267;28;20082;-83
2022/11/09 10:59:44;;;;;;;3.55;0.90;;;16.80;62.80;;;;;;4977410;28;20118;-83
2022/11/09 11:02:25;;;;;;;4.07;1.67;;;16.80;62.10;;;;;;4981726;28;20027;-84
2022/11/09 11:05:16;;;;;;;1.63;1.10;;;16.80;62.00;;;;;;4979169;28;20130;-84
2022/11/09 11:07:43;;;;;;;2.92;1.00;;;16.70;61.70;;;;;;4982051;28;20030;-83
2022/11/09 11:10:09;;;;;;;2.03;1.25;;;16.70;62.40;;;;;;4965416;28;20057;-84
2022/11/09 11:12:34;;;;;;;1.15;0.95;;;16.80;62.50;;;;;;4982807;28;20026;-84
2022/11/09 11:15:00;;;;;;;5.43;1.20;;;16.90;62.10;;;;;;4976531;28;20459;-83
2022/11/09 11:17:34;;;;;;;0.93;0.90;;;17.00;62.10;;;;;;4982444;28;20050;-83
2022/11/09 11:20:23;;;;;;;1.10;0.88;;;17.20;62.00;;;;;;4977241;28;20363;-83
2022/11/09 11:22:48;;;;;;;2.25;0.85;;;17.40;61.40;;;;;;5002772;28;20471;-84
2022/11/09 11:25:20;;;;;;;0.80;0.80;;;17.40;61.10;;;;;;4997436;28;20041;-83
2022/11/09 11:28:14;;;;;;;0.77;0.77;;;17.50;61.00;;;;;;4997522;28;20034;-82
2022/11/09 11:30:40;;;;;;;0.90;0.75;;;17.60;60.80;;;;;;4952565;29;20087;-85
2022/11/09 11:33:19;;;;;;;2.45;0.68;;;17.80;60.60;;;;;;4952487;28;20043;-83
2022/11/09 11:35:57;;;;;;;1.15;0.82;;;17.80;59.40;;;;;;4962865;29;20027;-83
2022/11/09 11:38:55;;;;;;;0.80;0.80;;;17.80;59.50;;;;;;4989707;28;20019;-83
2022/11/09 11:41:29;;;;;;;1.10;1.00;;;17.70;59.80;;;;;;4981886;28;20118;-83
2022/11/09 11:44:21;;;;;;;1.50;1.05;;;17.70;60.30;;;;;;4972003;28;20035;-83
2022/11/09 11:47:00;;;;;;;4.65;0.77;;;17.60;60.30;;;;;;4995072;28;20093;-82
2022/11/09 11:49:44;;;;;;;0.77;0.77;;;17.60;61.00;;;;;;5002287;28;20025;-84
2022/11/09 11:52:24;;;;;;;0.93;0.90;;;17.60;60.50;;;;;;4990209;28;20082;-83
2022/11/09 11:55:06;;;;;;;2.25;1.00;;;17.70;60.70;;;;;;4968327;29;20028;-84
2022/11/09 11:57:46;;;;;;;1.10;1.00;;;17.80;60.50;;;;;;4983561;28;20027;-84
2022/11/09 12:00:17;;;;;;;3.40;1.10;;;17.90;60.20;;;;;;4985458;28;20543;-84
2022/11/09 12:03:27;;;;;;;3.67;1.30;;;17.90;59.90;;;;;;4982931;28;20081;-83
2022/11/09 12:06:21;;;;;;;1.15;0.80;;;17.90;59.50;;;;;;4982617;28;20030;-81
2022/11/09 12:09:06;;;;;;;1.58;1.02;;;17.90;60.10;;;;;;4962908;28;20087;-81
2022/11/09 12:11:53;;;;;;;0.70;0.70;;;18.00;59.40;;;;;;4992138;28;20082;-83
2022/11/09 12:14:56;;;;;;;2.15;1.15;;;17.90;60.00;;;;;;4982397;28;20054;-84
2022/11/09 12:17:42;;;;;;;;;;;18.00;60.20;;;;;;4966047;28;20033;-84
2022/11/09 12:20:32;;;;;;;8.38;1.38;;;18.00;60.00;;;;;;5000578;28;19977;-83
2022/11/09 12:23:43;;;;;;;1.05;0.95;;;18.20;59.50;;;;;;4975958;28;20055;-84
2022/11/09 12:26:14;;;;;;;2.42;1.25;;;18.40;59.70;;;;;;4905143;29;20028;-81
2022/11/09 12:28:43;;;;;;;1.67;0.97;;;18.50;59.30;;;;;;4907896;29;20077;-81
2022/11/09 12:31:14;;;;;;;2.45;0.90;;;18.60;59.00;;;;;;4954130;28;20109;-82
2022/11/09 12:34:15;;;;;;;1.35;0.95;;;18.50;59.10;;;;;;4970601;28;20482;-81
2022/11/09 12:37:12;;;;;;;2.30;1.00;;;18.30;60.00;;;;;;4979705;28;20043;-81
2022/11/09 12:39:45;;;;;;;1.25;1.15;;;18.40;59.80;;;;;;4987067;28;20022;-82
2022/11/09 12:42:20;;;;;;;1.92;1.02;;;18.40;60.20;;;;;;4994736;28;20049;-80
2022/11/09 12:45:05;;;;;;;1.30;1.20;;;18.30;60.60;;;;;;4954043;28;20086;-81
2022/11/09 12:47:40;;;;;;;3.10;1.05;;;18.20;61.40;;;;;;4960457;28;20117;-82
2022/11/09 12:50:20;;;;;;;9.07;2.88;;;18.00;62.10;;;;;;4977412;28;20037;-82
2022/11/09 12:52:51;;;;;;;1.58;1.05;;;17.80;63.00;;;;;;4987618;28;20027;-82
2022/11/09 12:55:42;;;;;;;4.35;1.55;;;17.70;63.70;;;;;;4975021;28;20038;-83
2022/11/09 12:58:25;;;;;;;2.28;1.35;;;17.60;63.90;;;;;;4965531;28;20106;-83
2022/11/09 13:00:55;;;;;;;1.85;1.17;;;17.50;64.40;;;;;;4977916;28;20035;-84
2022/11/09 13:03:39;;;;;;;4.35;2.03;;;17.50;64.50;;;;;;4980039;28;20084;-84
2022/11/09 13:06:13;;;;;;;2.70;1.00;;;17.60;64.30;;;;;;4952421;28;20496;-84